Wetterdaten: aktuell Donnerstag, 21.02.2019 06:15
Datum Zeit Temp. A. Temp. 2 Feuchte A. Luftdruck Regen Wind Richtung Richtung Sonnenschein Windben
21.02.2019 06:15 6,8 C 6,1 C 87 % 1021,4 hPa 0,0 l/m 4,8 km/h (1 Bft) SW 225 0 min 12,9 km/h (3 Bft)
21.02.2019 06:10 6,9 C 5,6 C 87 % 1021,4 hPa 0,0 l/m 4,8 km/h (1 Bft) W-SW 247 0 min 14,5 km/h (3 Bft)
21.02.2019 06:05 7,0 C 6,1 C 87 % 1021,4 hPa 0,0 l/m 4,8 km/h (1 Bft) SW 225 0 min 12,9 km/h (3 Bft)
21.02.2019 06:00 7,1 C 6,1 C 87 % 1021,4 hPa 0,0 l/m 6,4 km/h (2 Bft) W-SW 247 0 min 14,5 km/h (3 Bft)
21.02.2019 05:55 7,1 C 6,1 C 87 % 1021,4 hPa 0,0 l/m 6,4 km/h (2 Bft) SW 225 0 min 14,5 km/h (3 Bft)
21.02.2019 05:50 7,1 C 6,1 C 87 % 1021,4 hPa 0,0 l/m 6,4 km/h (2 Bft) W-SW 247 0 min 16,1 km/h (3 Bft)
21.02.2019 05:45 7,1 C 6,1 C 87 % 1021,3 hPa 0,0 l/m 6,4 km/h (2 Bft) W-SW 247 0 min 12,9 km/h (3 Bft)
21.02.2019 05:40 7,1 C 6,1 C 87 % 1021,3 hPa 0,0 l/m 6,4 km/h (2 Bft) W-SW 247 0 min 14,5 km/h (3 Bft)
21.02.2019 05:35 7,1 C 6,1 C 87 % 1021,3 hPa 0,0 l/m 6,4 km/h (2 Bft) W-SW 247 0 min 14,5 km/h (3 Bft)
21.02.2019 05:30 7,1 C 6,1 C 87 % 1021,4 hPa 0,0 l/m 6,4 km/h (2 Bft) W-SW 247 0 min 11,3 km/h (2 Bft)
21.02.2019 05:25 7,1 C 6,1 C 87 % 1021,5 hPa 0,0 l/m 4,8 km/h (1 Bft) W-SW 247 0 min 11,3 km/h (2 Bft)
21.02.2019 05:20 7,1 C 6,1 C 87 % 1021,6 hPa 0,0 l/m 6,4 km/h (2 Bft) W-SW 247 0 min 19,3 km/h (3 Bft)
21.02.2019 05:15 7,1 C 5,6 C 86 % 1021,6 hPa 0,0 l/m 4,8 km/h (1 Bft) SW 225 0 min 11,3 km/h (2 Bft)
21.02.2019 05:10 7,2 C 5,6 C 86 % 1021,7 hPa 0,0 l/m 4,8 km/h (1 Bft) W-SW 247 0 min 11,3 km/h (2 Bft)
21.02.2019 05:05 7,2 C 6,1 C 86 % 1021,7 hPa 0,0 l/m 6,4 km/h (2 Bft) W-SW 247 0 min 11,3 km/h (2 Bft)
21.02.2019 05:00 7,3 C 6,1 C 85 % 1021,7 hPa 0,0 l/m 4,8 km/h (1 Bft) W-SW 247 0 min 12,9 km/h (3 Bft)
21.02.2019 04:55 7,4 C 6,1 C 85 % 1021,7 hPa 0,2 l/m 4,8 km/h (1 Bft) W-SW 247 0 min 16,1 km/h (3 Bft)
21.02.2019 04:50 7,4 C 6,1 C 85 % 1021,6 hPa 0,0 l/m 4,8 km/h (1 Bft) W-SW 247 0 min 16,1 km/h (3 Bft)
21.02.2019 04:45 7,4 C 6,1 C 84 % 1021,6 hPa 0,0 l/m 4,8 km/h (1 Bft) W-SW 247 0 min 11,3 km/h (2 Bft)
21.02.2019 04:40 7,6 C 6,1 C 84 % 1021,6 hPa 0,0 l/m 4,8 km/h (1 Bft) W-SW 247 0 min 9,7 km/h (2 Bft)
21.02.2019 04:35 7,6 C 6,1 C 83 % 1021,6 hPa 0,0 l/m 6,4 km/h (2 Bft) W-SW 247 0 min 11,3 km/h (2 Bft)
21.02.2019 04:30 7,7 C 6,1 C 82 % 1021,6 hPa 0,0 l/m 6,4 km/h (2 Bft) W-SW 247 0 min 16,1 km/h (3 Bft)
21.02.2019 04:25 7,8 C 6,7 C 82 % 1021,6 hPa 0,0 l/m 6,4 km/h (2 Bft) W 270 0 min 12,9 km/h (3 Bft)
21.02.2019 04:20 7,8 C 6,7 C 81 % 1021,5 hPa 0,0 l/m 8,0 km/h (2 Bft) SW 225 0 min 14,5 km/h (3 Bft)
21.02.2019 04:15 7,9 C 7,2 C 81 % 1021,5 hPa 0,0 l/m 6,4 km/h (2 Bft) W-SW 247 0 min 12,9 km/h (3 Bft)
21.02.2019 04:10 7,9 C 7,8 C 81 % 1021,5 hPa 0,0 l/m 9,7 km/h (2 Bft) W-SW 247 0 min 16,1 km/h (3 Bft)
21.02.2019 04:05 7,9 C 7,8 C 80 % 1021,5 hPa 0,0 l/m 8,0 km/h (2 Bft) W-SW 247 0 min 17,7 km/h (3 Bft)
21.02.2019 04:00 7,9 C 7,8 C 80 % 1021,5 hPa 0,0 l/m 6,4 km/h (2 Bft) W-SW 247 0 min 12,9 km/h (3 Bft)
21.02.2019 03:55 7,9 C 7,8 C 80 % 1021,5 hPa 0,0 l/m 9,7 km/h (2 Bft) W-SW 247 0 min 22,5 km/h (4 Bft)
21.02.2019 03:50 7,8 C 7,8 C 80 % 1021,5 hPa 0,0 l/m 8,0 km/h (2 Bft) W-SW 247 0 min 14,5 km/h (3 Bft)
21.02.2019 03:45 7,9 C 7,8 C 80 % 1021,5 hPa 0,0 l/m 6,4 km/h (2 Bft) W-SW 247 0 min 16,1 km/h (3 Bft)
21.02.2019 03:40 7,9 C 7,8 C 80 % 1021,5 hPa 0,0 l/m 6,4 km/h (2 Bft) W-SW 247 0 min 12,9 km/h (3 Bft)
21.02.2019 03:35 7,9 C 7,8 C 81 % 1021,5 hPa 0,0 l/m 6,4 km/h (2 Bft) W-SW 247 0 min 14,5 km/h (3 Bft)
21.02.2019 03:30 7,9 C 7,8 C 81 % 1021,6 hPa 0,0 l/m 6,4 km/h (2 Bft) W 270 0 min 16,1 km/h (3 Bft)
21.02.2019 03:25 7,9 C 7,8 C 81 % 1021,5 hPa 0,0 l/m 6,4 km/h (2 Bft) W-SW 247 0 min 12,9 km/h (3 Bft)
21.02.2019 03:20 7,9 C 7,8 C 81 % 1021,5 hPa 0,0 l/m 8,0 km/h (2 Bft) W-SW 247 0 min 17,7 km/h (3 Bft)
21.02.2019 03:15 7,9 C 7,8 C 81 % 1021,5 hPa 0,0 l/m 6,4 km/h (2 Bft) W-SW 247 0 min 14,5 km/h (3 Bft)
21.02.2019 03:10 7,8 C 7,8 C 81 % 1021,5 hPa 0,0 l/m 6,4 km/h (2 Bft) W-SW 247 0 min 16,1 km/h (3 Bft)
21.02.2019 03:05 7,8 C 7,8 C 81 % 1021,5 hPa 0,0 l/m 6,4 km/h (2 Bft) W-SW 247 0 min 14,5 km/h (3 Bft)
21.02.2019 03:00 7,8 C 7,8 C 81 % 1021,5 hPa 0,0 l/m 6,4 km/h (2 Bft) W-SW 247 0 min 14,5 km/h (3 Bft)
21.02.2019 02:55 7,8 C 7,8 C 81 % 1021,5 hPa 0,0 l/m 8,0 km/h (2 Bft) SW 225 0 min 19,3 km/h (3 Bft)
21.02.2019 02:50 7,8 C 7,8 C 81 % 1021,5 hPa 0,0 l/m 8,0 km/h (2 Bft) W-SW 247 0 min 17,7 km/h (3 Bft)
21.02.2019 02:45 7,8 C 7,8 C 81 % 1021,5 hPa 0,0 l/m 6,4 km/h (2 Bft) W-SW 247 0 min 16,1 km/h (3 Bft)
21.02.2019 02:40 7,8 C 7,8 C 81 % 1021,5 hPa 0,0 l/m 8,0 km/h (2 Bft) SW 225 0 min 22,5 km/h (4 Bft)
21.02.2019 02:35 7,8 C 7,8 C 81 % 1021,6 hPa 0,0 l/m 8,0 km/h (2 Bft) W-SW 247 0 min 16,1 km/h (3 Bft)
21.02.2019 02:30 7,8 C 7,8 C 81 % 1021,6 hPa 0,0 l/m 9,7 km/h (2 Bft) W-SW 247 0 min 20,9 km/h (4 Bft)
21.02.2019 02:25 7,8 C 7,8 C 81 % 1021,6 hPa 0,0 l/m 8,0 km/h (2 Bft) W-SW 247 0 min 16,1 km/h (3 Bft)
21.02.2019 02:20 7,8 C 7,8 C 81 % 1021,6 hPa 0,0 l/m 8,0 km/h (2 Bft) SW 225 0 min 17,7 km/h (3 Bft)
21.02.2019 02:15 7,8 C 7,8 C 81 % 1021,6 hPa 0,0 l/m 9,7 km/h (2 Bft) W-SW 247 0 min 17,7 km/h (3 Bft)
21.02.2019 02:10 7,8 C 7,8 C 81 % 1021,6 hPa 0,0 l/m 9,7 km/h (2 Bft) W-SW 247 0 min 22,5 km/h (4 Bft)
21.02.2019 02:05 7,7 C 7,8 C 82 % 1021,6 hPa 0,0 l/m 8,0 km/h (2 Bft) W-SW 247 0 min 16,1 km/h (3 Bft)
21.02.2019 02:00 7,7 C 7,8 C 82 % 1021,5 hPa 0,0 l/m 9,7 km/h (2 Bft) W-SW 247 0 min 20,9 km/h (4 Bft)
21.02.2019 01:55 7,7 C 7,8 C 82 % 1021,4 hPa 0,0 l/m 9,7 km/h (2 Bft) SW 225 0 min 17,7 km/h (3 Bft)
21.02.2019 01:50 7,7 C 7,8 C 82 % 1021,3 hPa 0,0 l/m 9,7 km/h (2 Bft) SW 225 0 min 19,3 km/h (3 Bft)
21.02.2019 01:45 7,7 C 7,8 C 82 % 1021,6 hPa 0,0 l/m 8,0 km/h (2 Bft) W-SW 247 0 min 17,7 km/h (3 Bft)
21.02.2019 01:40 7,7 C 7,8 C 82 % 1021,5 hPa 0,0 l/m 8,0 km/h (2 Bft) SW 225 0 min 17,7 km/h (3 Bft)
21.02.2019 01:35 7,7 C 7,8 C 82 % 1021,5 hPa 0,0 l/m 9,7 km/h (2 Bft) W-SW 247 0 min 14,5 km/h (3 Bft)
21.02.2019 01:30 7,7 C 7,8 C 82 % 1021,5 hPa 0,0 l/m 9,7 km/h (2 Bft) W-SW 247 0 min 19,3 km/h (3 Bft)
21.02.2019 01:25 7,7 C 7,8 C 82 % 1021,6 hPa 0,0 l/m 9,7 km/h (2 Bft) W-SW 247 0 min 20,9 km/h (4 Bft)
21.02.2019 01:20 7,7 C 7,8 C 82 % 1021,6 hPa 0,0 l/m 9,7 km/h (2 Bft) W-SW 247 0 min 20,9 km/h (4 Bft)
21.02.2019 01:15 7,7 C 7,8 C 82 % 1021,6 hPa 0,0 l/m 8,0 km/h (2 Bft) W-SW 247 0 min 20,9 km/h (4 Bft)
21.02.2019 01:10 7,7 C 7,8 C 82 % 1021,6 hPa 0,0 l/m 8,0 km/h (2 Bft) SW 225 0 min 16,1 km/h (3 Bft)
21.02.2019 01:05 7,7 C 7,8 C 82 % 1021,6 hPa 0,0 l/m 8,0 km/h (2 Bft) SW 225 0 min 19,3 km/h (3 Bft)
21.02.2019 01:00 7,7 C 7,8 C 82 % 1021,5 hPa 0,0 l/m 9,7 km/h (2 Bft) SW 225 0 min 20,9 km/h (4 Bft)
21.02.2019 00:55 7,7 C 7,2 C 82 % 1021,5 hPa 0,0 l/m 8,0 km/h (2 Bft) W-SW 247 0 min 16,1 km/h (3 Bft)
21.02.2019 00:50 7,7 C 7,2 C 82 % 1021,6 hPa 0,0 l/m 6,4 km/h (2 Bft) SW 225 0 min 14,5 km/h (3 Bft)
21.02.2019 00:45 7,7 C 7,2 C 82 % 1021,6 hPa 0,0 l/m 9,7 km/h (2 Bft) SW 225 0 min 17,7 km/h (3 Bft)
21.02.2019 00:40 7,8 C 7,2 C 82 % 1021,5 hPa 0,0 l/m 8,0 km/h (2 Bft) SW 225 0 min 17,7 km/h (3 Bft)
21.02.2019 00:35 7,8 C 6,7 C 82 % 1021,6 hPa 0,0 l/m 6,4 km/h (2 Bft) SW 225 0 min 14,5 km/h (3 Bft)
21.02.2019 00:30 7,9 C 7,2 C 81 % 1021,6 hPa 0,0 l/m 8,0 km/h (2 Bft) SW 225 0 min 16,1 km/h (3 Bft)
21.02.2019 00:25 7,9 C 7,8 C 81 % 1021,6 hPa 0,0 l/m 8,0 km/h (2 Bft) SW 225 0 min 17,7 km/h (3 Bft)
21.02.2019 00:20 7,9 C 7,8 C 81 % 1021,5 hPa 0,0 l/m 8,0 km/h (2 Bft) SW 225 0 min 20,9 km/h (4 Bft)
21.02.2019 00:15 7,9 C 7,8 C 81 % 1021,5 hPa 0,0 l/m 9,7 km/h (2 Bft) W-SW 247 0 min 20,9 km/h (4 Bft)
21.02.2019 00:10 7,9 C 7,8 C 81 % 1021,5 hPa 0,0 l/m 8,0 km/h (2 Bft) SW 225 0 min 17,7 km/h (3 Bft)
21.02.2019 00:05 7,9 C 7,8 C 81 % 1021,5 hPa 0,0 l/m 9,7 km/h (2 Bft) SW 225 0 min 20,9 km/h (4 Bft)
21.02.2019 00:00 7,9 C 7,8 C 81 % 1021,5 hPa 0,0 l/m 9,7 km/h (2 Bft) SW 225 0 min 17,7 km/h (3 Bft)
_ Min-Zeit 06:15 05:10 03:40 01:50 - 04:40 - - - 04:40
Minimum _ 6,8 C 5,6 C 80 % 1021,3 hPa - 4,8 km/h (1 Bft) - - - 9,7 km/h (2 Bft)
_ Max-Zeit 00:00 00:00 05:20 04:55 04:55 00:00 - - 00:00 02:10
Maximum _ 7,9 C 7,8 C 87 % 1021,7 hPa 0,2 l/m 9,7 km/h
SW (2 Bft)
- - 0 min 22,5 km/h
SW (4 Bft)
Durchschnitt _ 7,6 C 7,2 C 83 % 1021,5 hPa #0,2 l/m 7,4 km/h (2 Bft) W-SW - #0 min. 16,2 km/h (3 Bft)